createdAt,value
2022-10-09T00:01:54.924Z,25.79
2022-10-09T00:07:02.115Z,25.85
2022-10-09T00:12:09.232Z,25.81
2022-10-09T00:17:16.446Z,25.82
2022-10-09T00:22:23.680Z,25.81
2022-10-09T00:27:30.887Z,25.85
2022-10-09T00:32:38.197Z,25.87
2022-10-09T00:37:45.630Z,25.78
2022-10-09T00:42:52.776Z,25.73
2022-10-09T00:47:59.927Z,25.67
2022-10-09T00:53:07.208Z,25.63
2022-10-09T00:58:14.355Z,25.56
2022-10-09T01:03:21.599Z,25.50
2022-10-09T01:08:28.816Z,25.46
2022-10-09T01:13:36.007Z,25.40
2022-10-09T01:18:43.251Z,25.34
2022-10-09T01:23:50.541Z,25.27
2022-10-09T01:28:57.712Z,25.19
2022-10-09T01:34:04.887Z,25.13
2022-10-09T01:39:12.152Z,25.06
2022-10-09T01:44:19.307Z,25.03
2022-10-09T01:49:26.532Z,25.02
2022-10-09T01:54:33.756Z,24.96
2022-10-09T01:59:40.943Z,24.88
2022-10-09T02:04:48.154Z,24.85
2022-10-09T02:09:55.328Z,24.76
2022-10-09T02:15:02.454Z,24.64
2022-10-09T02:20:09.663Z,24.58
2022-10-09T02:25:16.908Z,24.49
2022-10-09T02:30:24.058Z,24.44
2022-10-09T02:35:31.331Z,24.30
2022-10-09T02:40:38.763Z,24.25
2022-10-09T02:45:45.861Z,24.16
2022-10-09T02:50:53.143Z,24.10
2022-10-09T02:56:00.348Z,24.04
2022-10-09T03:01:07.503Z,23.93
2022-10-09T03:06:14.689Z,23.78
2022-10-09T03:11:21.944Z,23.70
2022-10-09T03:16:29.185Z,23.61
2022-10-09T03:21:36.346Z,23.53
2022-10-09T03:26:43.559Z,23.41
2022-10-09T03:31:52.849Z,23.47
2022-10-09T03:36:57.960Z,23.52
2022-10-09T03:42:05.245Z,23.66
2022-10-09T03:47:12.475Z,23.68
2022-10-09T03:52:19.672Z,23.73
2022-10-09T03:57:26.923Z,23.74
2022-10-09T04:02:34.632Z,23.76
2022-10-09T04:07:41.772Z,23.74
2022-10-09T04:12:49.237Z,23.75
2022-10-09T04:17:56.130Z,23.76
2022-10-09T04:23:03.283Z,23.76
2022-10-09T04:28:10.673Z,23.76
2022-10-09T04:33:17.796Z,23.73
2022-10-09T04:38:24.962Z,23.72
2022-10-09T04:43:32.151Z,23.72
2022-10-09T04:48:39.312Z,23.70
2022-10-09T04:53:46.561Z,23.69
2022-10-09T04:58:53.752Z,23.64
2022-10-09T05:04:00.928Z,23.61
2022-10-09T05:09:08.135Z,23.59
2022-10-09T05:14:15.462Z,23.54
2022-10-09T05:19:22.624Z,23.51
2022-10-09T05:24:29.917Z,23.45
2022-10-09T05:29:37.144Z,23.44
2022-10-09T05:34:44.332Z,23.46
2022-10-09T05:39:51.590Z,23.46
2022-10-09T05:44:58.810Z,23.44
2022-10-09T05:50:05.997Z,23.44
2022-10-09T05:55:13.200Z,23.42
2022-10-09T06:00:20.428Z,23.43
2022-10-09T06:05:27.590Z,23.40
2022-10-09T06:10:34.802Z,23.43
2022-10-09T06:15:42.068Z,23.44
2022-10-09T06:20:49.254Z,23.43
2022-10-09T06:25:56.449Z,23.44
2022-10-09T06:31:03.950Z,23.44
2022-10-09T06:36:11.038Z,23.42
2022-10-09T06:41:18.245Z,23.39
2022-10-09T06:46:25.562Z,23.38
2022-10-09T06:51:32.665Z,23.37
2022-10-09T06:56:39.850Z,23.36
2022-10-09T07:01:47.136Z,23.33
2022-10-09T07:06:54.576Z,23.33
2022-10-09T07:12:01.778Z,23.32
2022-10-09T07:17:08.992Z,23.28
2022-10-09T07:22:16.128Z,23.28
2022-10-09T07:27:23.272Z,23.27
2022-10-09T07:32:30.501Z,23.25
2022-10-09T07:37:37.711Z,23.25
2022-10-09T07:42:44.967Z,23.29
2022-10-09T07:47:52.285Z,23.31
2022-10-09T07:52:59.421Z,23.40
2022-10-09T07:58:06.619Z,23.45
2022-10-09T08:03:13.928Z,23.50
2022-10-09T08:08:21.168Z,23.50
2022-10-09T08:13:28.342Z,23.49
2022-10-09T08:18:35.605Z,23.51
2022-10-09T08:23:42.748Z,23.54
2022-10-09T08:28:50.048Z,23.59
2022-10-09T08:33:57.185Z,23.64
2022-10-09T08:39:04.387Z,23.66
2022-10-09T08:44:11.663Z,23.68
2022-10-09T08:49:18.886Z,23.68
2022-10-09T08:54:26.100Z,23.70
2022-10-09T08:59:33.391Z,23.79
2022-10-09T09:04:40.593Z,23.87
2022-10-09T09:09:47.775Z,23.90
2022-10-09T09:14:54.981Z,23.98
2022-10-09T09:20:02.237Z,23.99
2022-10-09T09:25:09.373Z,23.98
2022-10-09T09:30:16.575Z,24.00
2022-10-09T09:35:23.805Z,24.00
2022-10-09T09:40:36.689Z,23.99
2022-10-09T09:45:38.233Z,23.99
2022-10-09T09:50:52.932Z,23.99
2022-10-09T09:55:52.641Z,24.01
2022-10-09T10:00:59.889Z,24.04
2022-10-09T10:06:07.154Z,24.05
2022-10-09T10:11:14.330Z,24.09
2022-10-09T10:16:21.547Z,24.12
2022-10-09T10:21:28.689Z,24.14
2022-10-09T10:26:35.886Z,24.15
2022-10-09T10:31:43.096Z,24.15
2022-10-09T10:36:50.304Z,24.14
2022-10-09T10:41:57.465Z,24.11
2022-10-09T10:47:04.637Z,24.13
2022-10-09T10:52:13.562Z,24.12
2022-10-09T10:57:20.798Z,24.13
2022-10-09T11:02:30.869Z,24.15
2022-10-09T11:07:35.309Z,24.17
2022-10-09T11:12:48.198Z,24.19
2022-10-09T11:17:49.824Z,24.19
2022-10-09T11:22:57.093Z,24.20
2022-10-09T11:28:04.271Z,24.20
2022-10-09T11:33:11.589Z,24.18
2022-10-09T11:38:18.789Z,24.18
2022-10-09T11:43:26.059Z,24.19
2022-10-09T11:48:33.279Z,24.18
2022-10-09T11:53:40.487Z,24.17
2022-10-09T11:58:48.201Z,24.20
2022-10-09T12:03:59.992Z,24.22
2022-10-09T12:09:02.686Z,24.25
2022-10-09T12:14:09.910Z,24.25
2022-10-09T12:19:17.240Z,24.25
2022-10-09T12:24:24.419Z,24.25
2022-10-09T12:29:31.627Z,24.26
2022-10-09T12:34:38.906Z,24.26
2022-10-09T12:39:46.186Z,24.24
2022-10-09T12:44:53.328Z,24.24
2022-10-09T12:50:00.559Z,24.23
2022-10-09T12:55:07.852Z,24.22
2022-10-09T13:00:15.065Z,24.21
2022-10-09T13:05:22.289Z,24.23
2022-10-09T13:10:29.491Z,24.25
2022-10-09T13:15:36.682Z,24.26
2022-10-09T13:20:43.872Z,24.27
2022-10-09T13:25:51.138Z,24.28
2022-10-09T13:30:58.478Z,24.29
2022-10-09T13:36:05.548Z,24.26
2022-10-09T13:41:12.747Z,24.30
2022-10-09T13:46:19.993Z,24.33
2022-10-09T13:51:27.125Z,24.40
2022-10-09T13:56:34.316Z,24.50
2022-10-09T14:01:41.564Z,24.51
2022-10-09T14:06:48.803Z,24.49
2022-10-09T14:11:56.074Z,24.48
2022-10-09T14:17:03.240Z,24.37
2022-10-09T14:22:10.415Z,24.36
2022-10-09T14:27:17.775Z,24.25
2022-10-09T14:32:24.917Z,24.30
2022-10-09T14:37:42.464Z,24.44
2022-10-09T14:42:39.391Z,24.56
2022-10-09T14:47:46.573Z,24.56
2022-10-09T14:52:53.769Z,24.59
2022-10-09T14:58:01.269Z,24.58
2022-10-09T15:03:08.482Z,24.61
2022-10-09T15:08:15.654Z,24.47
2022-10-09T15:13:22.928Z,24.57
2022-10-09T15:18:30.095Z,24.52
2022-10-09T15:23:37.355Z,24.60
2022-10-09T15:28:44.801Z,24.65
2022-10-09T15:33:51.811Z,24.78
2022-10-09T15:38:59.025Z,24.64
2022-10-09T15:44:06.432Z,24.45
2022-10-09T15:49:13.575Z,24.39
2022-10-09T15:54:20.819Z,24.38
2022-10-09T15:59:27.994Z,24.41
2022-10-09T16:04:35.154Z,24.42
2022-10-09T16:09:42.329Z,24.44
2022-10-09T16:14:49.561Z,24.45
2022-10-09T16:19:56.763Z,24.47
2022-10-09T16:25:04.008Z,24.47
2022-10-09T16:30:11.201Z,24.45
2022-10-09T16:35:18.591Z,24.44
2022-10-09T16:40:49.964Z,24.43
2022-10-09T16:45:33.125Z,24.40
2022-10-09T16:50:40.368Z,24.43
2022-10-09T16:55:47.804Z,24.51
2022-10-09T17:00:55.171Z,24.55
2022-10-09T17:06:02.627Z,24.62
2022-10-09T17:11:09.970Z,24.70
2022-10-09T17:16:18.399Z,24.79
2022-10-09T17:21:27.788Z,24.85
2022-10-09T17:26:31.961Z,24.81
2022-10-09T17:31:39.316Z,24.76
2022-10-09T17:36:46.778Z,24.75
2022-10-09T17:41:54.171Z,24.78
2022-10-09T17:47:01.721Z,24.79
2022-10-09T17:52:09.316Z,24.78
2022-10-09T17:57:16.646Z,24.76
2022-10-09T18:02:24.157Z,24.73
2022-10-09T18:07:31.476Z,24.70
2022-10-09T18:12:40.593Z,24.70
2022-10-09T18:17:48.785Z,24.72
2022-10-09T18:22:55.702Z,24.71
2022-10-09T18:28:03.024Z,24.74
2022-10-09T18:33:10.456Z,24.69
2022-10-09T18:38:17.987Z,24.66
2022-10-09T18:43:25.663Z,24.63
2022-10-09T18:48:33.336Z,24.65
2022-10-09T18:53:40.895Z,24.66
2022-10-09T18:58:48.320Z,24.68
2022-10-09T19:03:56.348Z,24.68
2022-10-09T19:09:03.569Z,24.65
2022-10-09T19:14:11.041Z,24.62
2022-10-09T19:19:18.495Z,24.60
2022-10-09T19:24:25.666Z,24.61
2022-10-09T19:29:33.171Z,24.64
2022-10-09T19:34:40.614Z,24.62
2022-10-09T19:39:48.090Z,24.58
2022-10-09T19:44:55.475Z,24.58
2022-10-09T19:50:03.033Z,24.58
2022-10-09T19:55:10.390Z,24.59
2022-10-09T20:00:17.596Z,24.65
2022-10-09T20:05:26.500Z,24.74
2022-10-09T20:10:33.886Z,24.77
2022-10-09T20:15:41.113Z,24.80
2022-10-09T20:20:48.320Z,24.85
2022-10-09T20:25:55.489Z,24.94
2022-10-09T20:31:02.659Z,24.97
2022-10-09T20:36:09.889Z,24.97
2022-10-09T20:41:18.878Z,24.91
2022-10-09T20:46:26.105Z,24.92
2022-10-09T20:51:33.361Z,24.94
2022-10-09T20:56:40.539Z,24.98
2022-10-09T21:01:47.801Z,24.96
2022-10-09T21:06:54.974Z,24.94
2022-10-09T21:12:02.081Z,24.97
2022-10-09T21:17:09.287Z,25.01
2022-10-09T21:22:16.540Z,25.01
2022-10-09T21:27:23.715Z,25.04
2022-10-09T21:32:30.900Z,25.03
2022-10-09T21:37:38.152Z,25.07
2022-10-09T21:42:45.290Z,25.12
2022-10-09T21:47:52.538Z,25.17
2022-10-09T21:52:59.773Z,25.21
2022-10-09T21:58:06.978Z,25.25
2022-10-09T22:03:14.223Z,25.22
2022-10-09T22:08:21.480Z,25.27
2022-10-09T22:13:28.756Z,25.31
2022-10-09T22:18:35.945Z,25.35
2022-10-09T22:23:43.226Z,25.40
2022-10-09T22:28:51.231Z,25.38
2022-10-09T22:33:58.494Z,25.36
2022-10-09T22:39:05.659Z,25.42
2022-10-09T22:44:12.846Z,25.45
2022-10-09T22:49:20.081Z,25.45
2022-10-09T22:54:27.289Z,25.47
2022-10-09T22:59:34.509Z,25.44
2022-10-09T23:04:41.709Z,25.44
2022-10-09T23:09:48.935Z,25.50
2022-10-09T23:14:56.127Z,25.50
2022-10-09T23:20:03.370Z,25.50
2022-10-09T23:25:10.559Z,25.49
2022-10-09T23:30:17.736Z,25.51
2022-10-09T23:35:25.009Z,25.54
2022-10-09T23:40:32.273Z,25.56
2022-10-09T23:45:39.434Z,25.51
2022-10-09T23:50:46.684Z,25.51
2022-10-09T23:55:53.864Z,25.51
